Time;durP1;ratioP1;P1;durP2;ratioP2;P2;SDS_P1;SDS_P2;PMS_P1;PMS_P2;Temp;Humidity;BMP_temperature;BMP_pressure;BME280_temperature;BME280_humidity;BME280_pressure;Samples;Min_cycle;Max_cycle;Signal;HPM_P1;HPM_P2
2022/08/26 00:01:11;;;;;;;;;;;;;;;27.21;39.44;98494.25;5092418;28;19912;-49
2022/08/26 00:03:38;;;;;;;;;;;;;;;27.22;39.41;98491.22;5092669;28;19912;-47
2022/08/26 00:06:04;;;;;;;;;;;;;;;27.21;39.45;98500.44;5092642;28;19911;-48
2022/08/26 00:08:29;;;;;;;;;;;;;;;27.24;39.62;98496.34;5092278;28;20278;-47
2022/08/26 00:10:55;;;;;;;;;;;;;;;27.27;39.77;98496.50;5091028;28;19962;-47
2022/08/26 00:13:20;;;;;;;;;;;;;;;27.31;39.65;98499.38;5090990;28;19912;-48
2022/08/26 00:15:46;;;;;;;;;;;;;;;27.38;39.83;98498.91;5092168;28;19916;-48
2022/08/26 00:18:12;;;;;;;;;;;;;;;27.42;40.13;98500.63;5090944;28;19912;-48
2022/08/26 00:20:38;;;;;;;;;;;;;;;27.49;40.39;98505.56;5092249;28;19912;-47
2022/08/26 00:23:03;;;;;;;;;;;;;;;27.45;39.99;98501.94;5092132;28;19919;-47
2022/08/26 00:25:29;;;;;;;;;;;;;;;27.47;40.17;98505.88;5090889;28;19912;-47
2022/08/26 00:27:55;;;;;;;;;;;;;;;27.50;40.27;98499.84;5092128;28;19998;-50
2022/08/26 00:30:23;;;;;;;;;;;;;;;27.55;40.79;98504.31;5091894;28;19916;-49
2022/08/26 00:32:49;;;;;;;;;;;;;;;27.75;40.43;98493.97;5092096;28;19916;-48
2022/08/26 00:35:14;;;;;;;;;;;;;;;27.89;40.63;98500.81;5090801;28;19963;-49
2022/08/26 00:37:40;;;;;;;;;;;;;;;27.96;40.45;98499.53;5090755;28;19951;-49
2022/08/26 00:40:07;;;;;;;;;;;;;;;27.97;40.56;98501.94;5090743;28;19919;-49
2022/08/26 00:42:32;;;;;;;;;;;;;;;28.01;40.74;98505.56;5090989;28;19919;-49
2022/08/26 00:44:58;;;;;;;;;;;;;;;28.08;40.24;98503.16;5091936;28;19916;-49
2022/08/26 00:47:36;;;;;;;;;;;;;;;28.14;40.45;98501.09;5091918;28;19912;-48
2022/08/26 00:50:03;;;;;;;;;;;;;;;28.19;40.57;98503.63;5091937;28;19959;-48
2022/08/26 00:52:28;;;;;;;;;;;;;;;28.23;40.66;98501.06;5091908;28;20378;-49
2022/08/26 00:54:59;;;;;;;;;;;;;;;28.24;40.36;98503.44;5090571;28;19919;-49
2022/08/26 00:57:25;;;;;;;;;;;;;;;28.24;40.76;98499.97;5091899;28;19916;-49
2022/08/26 00:59:54;;;;;;;;;;;;;;;28.37;40.83;98504.38;5090587;28;19920;-49
2022/08/26 01:02:19;;;;;;;;;;;;;;;28.39;40.98;98496.75;5091831;28;19912;-49
2022/08/26 01:04:46;;;;;;;;;;;;;;;28.49;41.20;98500.97;5090493;28;19919;-49
2022/08/26 01:07:12;;;;;;;;;;;;;;;28.62;41.41;98496.53;5092043;28;20416;-49
2022/08/26 01:09:37;;;;;;;;;;;;;;;28.78;40.89;98496.78;5091795;28;19912;-49
2022/08/26 01:12:03;;;;;;;;;;;;;;;28.83;40.81;98489.25;5091723;28;20339;-49
2022/08/26 01:14:30;;;;;;;;;;;;;;;28.91;40.98;98484.94;5095515;28;19942;-49
2022/08/26 01:16:56;;;;;;;;;;;;;;;28.98;40.65;98487.94;5095392;28;20421;-50
2022/08/26 01:19:28;;;;;;;;;;;;;;;28.98;40.71;98485.22;5095438;28;19958;-49
2022/08/26 01:21:56;;;;;;;;;;;;;;;28.95;40.67;98485.84;5095420;28;20026;-49
2022/08/26 01:24:24;;;;;;;;;;;;;;;28.87;40.72;98479.38;5093992;28;20384;-49
2022/08/26 01:26:51;;;;;;;;;;;;;;;28.88;41.01;98488.31;5095296;28;20706;-49
2022/08/26 01:29:18;;;;;;;;;;;;;;;28.92;40.80;98480.34;5094865;28;19916;-49
2022/08/26 01:31:45;;;;;;;;;;;;;;;29.05;41.07;98488.19;5093758;28;19912;-49
2022/08/26 01:34:20;;;;;;;;;;;;;;;28.99;40.43;98491.41;5095064;28;19955;-49
2022/08/26 01:36:46;;;;;;;;;;;;;;;28.66;41.18;98494.75;5095077;28;20412;-49
2022/08/26 01:39:12;;;;;;;;;;;;;;;28.28;41.29;98490.09;5094970;28;19916;-49
2022/08/26 01:41:39;;;;;;;;;;;;;;;28.05;42.26;98487.63;5094989;28;20047;-49
2022/08/26 01:44:09;;;;;;;;;;;;;;;28.00;42.44;98492.41;5094958;28;19919;-47
2022/08/26 01:46:37;;;;;;;;;;;;;;;27.99;42.50;98490.78;5094908;28;19916;-46
2022/08/26 01:49:05;;;;;;;;;;;;;;;27.99;42.70;98488.91;5076543;28;19955;-47
2022/08/26 01:51:35;;;;;;;;;;;;;;;27.88;42.97;98498.44;5093485;28;19919;-49
2022/08/26 01:54:02;;;;;;;;;;;;;;;27.68;43.55;98495.25;5094763;28;20033;-49
2022/08/26 01:56:27;;;;;;;;;;;;;;;27.60;43.79;98498.75;5093334;28;20381;-49
2022/08/26 01:58:54;;;;;;;;;;;;;;;27.52;43.61;98504.16;5093302;28;19919;-49
2022/08/26 02:01:21;;;;;;;;;;;;;;;27.34;44.26;98501.44;5093259;28;19912;-49
2022/08/26 02:03:59;;;;;;;;;;;;;;;27.30;44.42;98503.94;5094573;28;19951;-50
2022/08/26 02:06:24;;;;;;;;;;;;;;;27.15;44.78;98499.00;5094472;28;19915;-50
2022/08/26 02:08:52;;;;;;;;;;;;;;;27.07;44.73;98497.09;5094365;28;19965;-49
2022/08/26 02:11:17;;;;;;;;;;;;;;;26.95;44.98;98499.59;5094356;28;19966;-49
2022/08/26 02:13:45;;;;;;;;;;;;;;;26.96;45.02;98491.19;5094326;28;19951;-50
2022/08/26 02:16:11;;;;;;;;;;;;;;;27.00;45.14;98494.84;5092893;28;19912;-50
2022/08/26 02:18:40;;;;;;;;;;;;;;;27.07;44.85;98499.78;5094227;28;19999;-49
2022/08/26 02:21:06;;;;;;;;;;;;;;;27.16;44.54;98503.28;5094153;28;20002;-50
2022/08/26 02:23:31;;;;;;;;;;;;;;;27.23;45.06;98500.13;5091832;28;19919;-49
2022/08/26 02:26:02;;;;;;;;;;;;;;;27.02;44.56;98497.22;5092712;28;19912;-49
2022/08/26 02:28:33;;;;;;;;;;;;;;;26.79;45.41;98510.78;5092664;28;19993;-49
2022/08/26 02:30:58;;;;;;;;;;;;;;;26.60;45.57;98496.78;5093856;28;19920;-49
2022/08/26 02:33:23;;;;;;;;;;;;;;;26.53;46.06;98501.78;5093934;28;19919;-50
2022/08/26 02:35:49;;;;;;;;;;;;;;;26.57;46.04;98502.75;5092574;28;20305;-50
2022/08/26 02:38:14;;;;;;;;;;;;;;;26.77;45.99;98499.53;5093781;28;19955;-49
2022/08/26 02:40:42;;;;;;;;;;;;;;;27.04;45.38;98495.00;5093795;28;19998;-50
2022/08/26 02:43:11;;;;;;;;;;;;;;;27.16;44.81;98499.78;5093778;28;20120;-50
2022/08/26 02:45:38;;;;;;;;;;;;;;;27.31;44.87;98494.00;5093749;28;19912;-49
2022/08/26 02:48:09;;;;;;;;;;;;;;;27.38;44.28;98494.28;5093523;28;19919;-49
2022/08/26 02:50:38;;;;;;;;;;;;;;;27.61;44.75;98500.34;5093650;28;19916;-50
2022/08/26 02:53:03;;;;;;;;;;;;;;;27.85;44.04;98497.16;5092309;28;19912;-50
2022/08/26 02:55:29;;;;;;;;;;;;;;;27.99;43.88;98498.91;5093533;28;19912;-49
2022/08/26 02:57:54;;;;;;;;;;;;;;;27.99;43.74;98488.91;5093441;28;19958;-49
2022/08/26 03:00:20;;;;;;;;;;;;;;;27.95;43.59;98493.38;5092210;28;19954;-50
2022/08/26 03:02:45;;;;;;;;;;;;;;;28.01;43.55;98489.38;5092162;28;20385;-50
2022/08/26 03:05:14;;;;;;;;;;;;;;;28.10;43.16;98489.34;5093393;28;19912;-49
2022/08/26 03:07:40;;;;;;;;;;;;;;;27.94;43.21;98497.16;5092153;28;20269;-50
2022/08/26 03:10:06;;;;;;;;;;;;;;;27.85;43.45;98493.66;5091900;28;20391;-49
2022/08/26 03:12:31;;;;;;;;;;;;;;;27.77;43.73;98499.84;5093272;28;19919;-49
2022/08/26 03:14:57;;;;;;;;;;;;;;;27.51;43.71;98500.66;5093233;28;20002;-50
2022/08/26 03:17:22;;;;;;;;;;;;;;;27.21;44.37;98495.03;5091759;28;20351;-49
2022/08/26 03:19:48;;;;;;;;;;;;;;;27.23;44.69;98494.75;5093073;28;19916;-49
2022/08/26 03:22:13;;;;;;;;;;;;;;;27.40;44.79;98494.78;5091749;28;19912;-50
2022/08/26 03:24:39;;;;;;;;;;;;;;;27.33;45.35;98499.84;5093046;28;19912;-49
2022/08/26 03:27:07;;;;;;;;;;;;;;;27.09;47.49;98500.25;5092916;28;19919;-50
2022/08/26 03:32:19;;;;;;;;;;;;;;;26.83;50.80;98500.97;5092940;28;19968;-50
2022/08/26 03:34:45;;;;;;;;;;;;;;;26.81;51.24;98503.19;5092575;28;20002;-50
2022/08/26 03:37:11;;;;;;;;;;;;;;;26.66;52.27;98495.53;5092781;28;19912;-50
2022/08/26 03:39:36;;;;;;;;;;;;;;;26.42;52.75;98502.06;5092779;28;19931;-50
2022/08/26 03:42:02;;;;;;;;;;;;;;;26.19;53.85;98503.97;5092604;28;19919;-49
2022/08/26 03:44:27;;;;;;;;;;;;;;;25.93;55.59;98508.41;5091408;28;19919;-49
2022/08/26 03:46:53;;;;;;;;;;;;;;;25.84;56.73;98497.56;5092819;28;20434;-49
2022/08/26 03:49:18;;;;;;;;;;;;;;;25.98;55.35;98501.03;5092500;28;20243;-50
2022/08/26 03:51:44;;;;;;;;;;;;;;;25.61;54.88;98508.28;5092575;28;19912;-49
2022/08/26 03:54:09;;;;;;;;;;;;;;;24.99;56.83;98505.31;5092514;28;19970;-49
2022/08/26 03:56:35;;;;;;;;;;;;;;;24.66;59.54;98508.88;5092503;28;19912;-49
2022/08/26 03:59:01;;;;;;;;;;;;;;;24.66;60.05;98516.16;5092487;28;19954;-48
2022/08/26 04:01:27;;;;;;;;;;;;;;;24.66;61.32;98513.47;5091152;28;19912;-48
2022/08/26 04:04:00;;;;;;;;;;;;;;;24.67;60.54;98521.22;5092664;28;19918;-47
2022/08/26 04:06:27;;;;;;;;;;;;;;;24.64;60.87;98518.34;5092393;28;19912;-47
2022/08/26 04:08:57;;;;;;;;;;;;;;;24.62;61.51;98525.88;5091022;28;19912;-48
2022/08/26 04:11:26;;;;;;;;;;;;;;;24.75;61.73;98519.75;5092559;28;19915;-48
2022/08/26 04:13:52;;;;;;;;;;;;;;;24.94;61.44;98529.59;5092174;28;19916;-48
2022/08/26 04:16:18;;;;;;;;;;;;;;;24.99;61.36;98524.09;5092286;28;19920;-49
2022/08/26 04:18:44;;;;;;;;;;;;;;;25.08;60.68;98522.31;5090886;28;20374;-50
2022/08/26 04:21:10;;;;;;;;;;;;;;;25.38;59.20;98514.75;5092444;28;19923;-48
2022/08/26 04:23:37;;;;;;;;;;;;;;;25.62;58.89;98520.66;5092516;28;20297;-50
2022/08/26 04:26:02;;;;;;;;;;;;;;;25.89;57.22;98519.75;5092136;28;19912;-49
2022/08/26 04:28:28;;;;;;;;;;;;;;;25.96;57.21;98519.34;5090761;28;19920;-49
2022/08/26 04:30:54;;;;;;;;;;;;;;;26.03;57.57;98518.91;5090622;28;19916;-49
2022/08/26 04:33:20;;;;;;;;;;;;;;;26.13;57.48;98517.88;5092054;28;20373;-49
2022/08/26 04:35:46;;;;;;;;;;;;;;;26.14;56.85;98522.16;5090728;28;19922;-49
2022/08/26 04:38:15;;;;;;;;;;;;;;;26.15;57.07;98526.44;5092094;28;19912;-49
2022/08/26 04:40:44;;;;;;;;;;;;;;;26.09;56.31;98529.25;5090720;28;19912;-49
2022/08/26 04:43:09;;;;;;;;;;;;;;;25.98;55.73;98535.16;5092089;28;19916;-49
2022/08/26 04:45:36;;;;;;;;;;;;;;;25.96;55.74;98535.50;5090716;28;19912;-49
2022/08/26 04:48:01;;;;;;;;;;;;;;;26.27;55.15;98534.75;5094843;28;19912;-48
2022/08/26 04:50:27;;;;;;;;;;;;;;;26.56;54.18;98536.97;5095991;28;19919;-48
2022/08/26 04:52:52;;;;;;;;;;;;;;;26.62;53.06;98533.06;5095940;28;19912;-48
2022/08/26 04:55:18;;;;;;;;;;;;;;;26.65;53.06;98540.50;5095879;28;19922;-48
2022/08/26 04:57:43;;;;;;;;;;;;;;;26.70;52.71;98542.25;5095822;28;20293;-49
2022/08/26 05:00:11;;;;;;;;;;;;;;;26.70;52.41;98543.06;5094435;28;19959;-48
2022/08/26 05:02:36;;;;;;;;;;;;;;;26.73;52.06;98541.66;5095671;28;19912;-49
2022/08/26 05:05:04;;;;;;;;;;;;;;;26.70;51.69;98536.88;5095622;28;19916;-49
2022/08/26 05:07:30;;;;;;;;;;;;;;;26.75;51.52;98544.81;5095557;28;19915;-49
2022/08/26 05:09:55;;;;;;;;;;;;;;;26.86;50.79;98542.63;5095565;28;19916;-49
2022/08/26 05:12:24;;;;;;;;;;;;;;;26.93;50.18;98545.69;5095552;28;20327;-49
2022/08/26 05:14:49;;;;;;;;;;;;;;;26.88;50.11;98543.94;5095448;28;19923;-50
2022/08/26 05:17:14;;;;;;;;;;;;;;;26.70;49.92;98544.94;5095402;28;19912;-49
2022/08/26 05:19:40;;;;;;;;;;;;;;;26.50;50.40;98543.56;5094093;28;19943;-49
2022/08/26 05:22:06;;;;;;;;;;;;;;;26.37;50.31;98547.16;5095355;28;19912;-49
2022/08/26 05:24:31;;;;;;;;;;;;;;;26.39;50.70;98548.41;5093963;28;19920;-49
2022/08/26 05:26:57;;;;;;;;;;;;;;;26.54;50.65;98549.13;5095261;28;20006;-49
2022/08/26 05:29:22;;;;;;;;;;;;;;;26.70;50.63;98542.25;5093569;28;19916;-49
2022/08/26 05:31:49;;;;;;;;;;;;;;;26.91;49.71;98550.59;5095132;28;19916;-48
2022/08/26 05:34:15;;;;;;;;;;;;;;;27.02;49.47;98548.41;5093827;28;19916;-48
2022/08/26 05:36:40;;;;;;;;;;;;;;;27.18;49.16;98546.06;5095058;28;20409;-49
2022/08/26 05:39:06;;;;;;;;;;;;;;;27.23;48.61;98548.63;5094999;28;19912;-49
2022/08/26 05:41:36;;;;;;;;;;;;;;;27.14;48.82;98555.88;5094942;28;19920;-48
2022/08/26 05:44:05;;;;;;;;;;;;;;;26.99;48.85;98551.72;5094952;28;19916;-50
2022/08/26 05:46:30;;;;;;;;;;;;;;;26.91;49.20;98561.38;5095084;28;20002;-49
2022/08/26 05:48:59;;;;;;;;;;;;;;;26.80;49.59;98560.84;5094778;28;20003;-47
2022/08/26 05:51:25;;;;;;;;;;;;;;;26.80;50.25;98568.94;5094816;28;19921;-48
2022/08/26 05:53:51;;;;;;;;;;;;;;;27.15;50.44;98573.66;5093379;28;19974;-47
2022/08/26 05:56:18;;;;;;;;;;;;;;;27.51;49.31;98568.06;5094690;28;19912;-48
2022/08/26 05:58:44;;;;;;;;;;;;;;;27.35;48.51;98567.72;5094814;28;19912;-47
2022/08/26 06:01:14;;;;;;;;;;;;;;;27.16;48.87;98567.94;5093297;28;20416;-48
2022/08/26 06:03:43;;;;;;;;;;;;;;;27.22;49.12;98566.69;5094549;28;19919;-47
2022/08/26 06:06:28;;;;;;;;;;;;;;;27.23;48.54;98565.63;5094459;28;19916;-49
2022/08/26 06:08:54;;;;;;;;;;;;;;;27.21;48.51;98570.50;5093455;28;20015;-47
2022/08/26 06:11:24;;;;;;;;;;;;;;;27.30;48.43;98571.31;5093080;28;19947;-47
2022/08/26 06:13:49;;;;;;;;;;;;;;;27.31;48.28;98566.75;5093449;28;20297;-47
2022/08/26 06:16:16;;;;;;;;;;;;;;;27.41;47.35;98565.66;5094316;28;19965;-48
2022/08/26 06:18:44;;;;;;;;;;;;;;;27.35;48.57;98572.31;5092890;28;19912;-48
2022/08/26 06:21:11;;;;;;;;;;;;;;;27.63;48.31;98570.13;5092935;28;19916;-48
2022/08/26 06:26:21;;;;;;;;;;;;;;;27.52;48.35;98575.00;5094476;28;19919;-50
2022/08/26 06:28:47;;;;;;;;;;;;;;;27.50;47.82;98580.72;5093727;28;19912;-50
2022/08/26 06:31:13;;;;;;;;;;;;;;;27.60;47.78;98584.22;5094028;28;20400;-48
2022/08/26 06:33:38;;;;;;;;;;;;;;;27.68;47.42;98584.22;5093935;28;19934;-49
2022/08/26 06:36:04;;;;;;;;;;;;;;;27.69;47.87;98583.13;5093890;28;20437;-48
2022/08/26 06:38:29;;;;;;;;;;;;;;;27.77;47.25;98583.44;5092571;28;19973;-47
2022/08/26 06:40:55;;;;;;;;;;;;;;;27.67;48.14;98584.56;5092501;28;19912;-48
2022/08/26 06:43:22;;;;;;;;;;;;;;;27.64;47.71;98587.88;5093796;28;19914;-48
2022/08/26 06:45:48;;;;;;;;;;;;;;;27.48;47.47;98591.03;5092422;28;19919;-48
2022/08/26 06:48:15;;;;;;;;;;;;;;;27.46;47.59;98589.75;5093649;28;19977;-48
2022/08/26 06:50:41;;;;;;;;;;;;;;;27.59;48.24;98588.06;5093615;28;20305;-49
2022/08/26 06:53:07;;;;;;;;;;;;;;;27.68;47.99;98594.22;5092263;28;20380;-47
2022/08/26 06:55:38;;;;;;;;;;;;;;;27.61;47.87;98591.22;5093531;28;19912;-48
2022/08/26 06:58:03;;;;;;;;;;;;;;;27.50;47.67;98590.72;5093572;28;19941;-48
2022/08/26 07:00:31;;;;;;;;;;;;;;;27.44;48.25;98590.06;5093457;28;19916;-48
2022/08/26 07:02:56;;;;;;;;;;;;;;;27.39;47.92;98586.75;5092132;28;19954;-48
2022/08/26 07:05:22;;;;;;;;;;;;;;;27.28;48.13;98589.69;5093355;28;19952;-47
2022/08/26 07:07:48;;;;;;;;;;;;;;;27.17;48.40;98588.38;5093187;28;20381;-47
2022/08/26 07:10:14;;;;;;;;;;;;;;;27.13;48.80;98590.13;5091456;28;19960;-48
2022/08/26 07:12:39;;;;;;;;;;;;;;;27.21;49.03;98593.97;5093473;28;20296;-47
2022/08/26 07:15:05;;;;;;;;;;;;;;;27.34;48.67;98595.75;5093219;28;19912;-47
2022/08/26 07:17:30;;;;;;;;;;;;;;;27.41;48.26;98601.47;5093194;28;19912;-46
2022/08/26 07:19:56;;;;;;;;;;;;;;;27.25;48.33;98606.50;5093129;28;20016;-48
2022/08/26 07:22:21;;;;;;;;;;;;;;;27.08;49.95;98607.22;5093029;28;19939;-48
2022/08/26 07:24:47;;;;;;;;;;;;;;;27.37;49.32;98603.22;5093021;28;19912;-48
2022/08/26 07:27:15;;;;;;;;;;;;;;;27.40;48.90;98602.56;5092949;28;19916;-48
2022/08/26 07:29:42;;;;;;;;;;;;;;;27.36;48.92;98609.69;5092580;28;19919;-48
2022/08/26 07:32:08;;;;;;;;;;;;;;;27.48;48.81;98603.72;5093102;28;19962;-47
2022/08/26 07:34:36;;;;;;;;;;;;;;;27.62;48.42;98607.06;5092862;28;19916;-49
2022/08/26 07:37:01;;;;;;;;;;;;;;;27.84;48.02;98599.94;5091470;28;19983;-48
2022/08/26 07:39:27;;;;;;;;;;;;;;;28.10;46.66;98605.38;5092774;28;19923;-48
2022/08/26 07:41:53;;;;;;;;;;;;;;;28.31;45.95;98612.81;5092740;28;19912;-47
2022/08/26 07:44:18;;;;;;;;;;;;;;;28.44;46.00;98609.16;5092713;28;19963;-48
2022/08/26 07:46:44;;;;;;;;;;;;;;;28.60;45.63;98609.47;5091470;28;20382;-48
2022/08/26 07:49:10;;;;;;;;;;;;;;;28.65;45.34;98607.41;5092479;28;20351;-48
2022/08/26 07:51:37;;;;;;;;;;;;;;;28.61;45.45;98608.34;5092634;28;19912;-48
2022/08/26 07:54:03;;;;;;;;;;;;;;;28.62;45.16;98607.25;5092599;28;19999;-49
2022/08/26 07:56:29;;;;;;;;;;;;;;;28.82;45.13;98611.94;5092571;28;20006;-49
2022/08/26 07:58:54;;;;;;;;;;;;;;;29.13;44.65;98607.41;5091261;28;20409;-49
2022/08/26 08:01:22;;;;;;;;;;;;;;;29.48;43.99;98608.81;5092478;28;19915;-50
2022/08/26 08:03:50;;;;;;;;;;;;;;;30.53;42.29;98599.09;5092462;28;19918;-49
2022/08/26 08:06:16;;;;;;;;;;;;;;;31.55;40.79;98604.72;5092455;28;19912;-49
2022/08/26 08:08:43;;;;;;;;;;;;;;;31.75;39.25;98602.97;5092325;28;20351;-49
2022/08/26 08:11:10;;;;;;;;;;;;;;;31.91;38.52;98595.69;5092289;28;20002;-49
2022/08/26 08:13:36;;;;;;;;;;;;;;;32.13;37.57;98596.31;5092308;28;19912;-48
2022/08/26 08:16:01;;;;;;;;;;;;;;;32.22;37.73;98594.25;5092233;28;19935;-48
2022/08/26 08:18:27;;;;;;;;;;;;;;;32.10;37.52;98599.75;5092256;28;20385;-48
2022/08/26 08:20:53;;;;;;;;;;;;;;;31.78;37.87;98594.94;5092184;28;19911;-49
2022/08/26 08:23:18;;;;;;;;;;;;;;;31.55;37.97;98596.56;5095885;28;19916;-49
2022/08/26 08:25:44;;;;;;;;;;;;;;;31.31;38.14;98591.94;5096708;28;19979;-49
2022/08/26 08:28:09;;;;;;;;;;;;;;;31.15;38.04;98603.50;5096350;28;19955;-49
2022/08/26 08:30:36;;;;;;;;;;;;;;;30.90;38.29;98599.19;5094796;28;19916;-47
2022/08/26 08:33:02;;;;;;;;;;;;;;;30.76;38.78;98600.25;5096249;28;19916;-48
2022/08/26 08:35:27;;;;;;;;;;;;;;;30.65;38.72;98604.53;5094924;28;19912;-49
2022/08/26 08:37:54;;;;;;;;;;;;;;;30.52;39.13;98622.66;5094917;28;19912;-49
2022/08/26 08:40:21;;;;;;;;;;;;;;;30.49;39.49;98615.22;5096198;28;19940;-49
2022/08/26 08:43:16;;;;;;;;;;;;;;;31.78;38.84;98613.16;5096429;28;20404;-49
2022/08/26 08:45:46;;;;;;;;;;;;;;;34.47;35.31;98600.56;5086726;28;19919;-48
2022/08/26 08:48:19;;;;;;;;;;;;;;;35.51;33.34;98604.19;5094665;28;20341;-49
2022/08/26 08:51:04;;;;;;;;;;;;;;;36.84;31.29;98600.25;5096009;28;19919;-48
2022/08/26 08:53:40;;;;;;;;;;;;;;;37.69;29.70;98593.78;5087134;28;19912;-48
2022/08/26 08:56:24;;;;;;;;;;;;;;;37.91;29.17;98600.13;5096199;28;19912;-48
2022/08/26 08:58:52;;;;;;;;;;;;;;;38.60;29.79;98592.88;5095833;28;19920;-49
2022/08/26 09:01:42;;;;;;;;;;;;;;;39.29;27.50;98594.44;5095796;28;19920;-49
2022/08/26 09:04:26;;;;;;;;;;;;;;;38.58;26.98;98595.22;5094485;28;19916;-48
2022/08/26 09:06:54;;;;;;;;;;;;;;;37.41;28.57;98603.41;5094356;28;19981;-48
2022/08/26 09:09:37;;;;;;;;;;;;;;;36.52;29.80;98597.97;5094237;28;19911;-49
2022/08/26 09:12:07;;;;;;;;;;;;;;;36.08;29.24;98594.00;5095612;28;19912;-50
2022/08/26 09:14:32;;;;;;;;;;;;;;;35.40;29.07;98604.03;5095533;28;19947;-48
2022/08/26 09:17:03;;;;;;;;;;;;;;;34.71;29.80;98602.19;5095453;28;19988;-48
2022/08/26 09:19:37;;;;;;;;;;;;;;;34.05;30.90;98604.03;5095738;28;19920;-48
2022/08/26 09:22:03;;;;;;;;;;;;;;;33.55;32.50;98614.63;5095451;28;20464;-49
2022/08/26 09:24:29;;;;;;;;;;;;;;;33.43;32.72;98615.53;5094198;28;19955;-48
2022/08/26 09:26:57;;;;;;;;;;;;;;;33.39;33.34;98617.38;5095293;28;19916;-50
2022/08/26 09:29:29;;;;;;;;;;;;;;;33.42;33.64;98615.88;5095102;28;19923;-49
2022/08/26 09:32:18;;;;;;;;;;;;;;;33.22;33.44;98615.03;5095405;28;19923;-50
2022/08/26 09:34:53;;;;;;;;;;;;;;;32.94;33.70;98609.69;5095176;28;19939;-50
2022/08/26 09:37:31;;;;;;;;;;;;;;;32.96;33.90;98613.66;5095089;28;19916;-50
2022/08/26 09:40:11;;;;;;;;;;;;;;;33.14;34.02;98616.81;5095088;28;19916;-50
2022/08/26 09:42:36;;;;;;;;;;;;;;;33.20;34.25;98622.75;5095018;28;19964;-49
2022/08/26 09:45:09;;;;;;;;;;;;;;;33.26;34.03;98618.63;5094932;28;20007;-49
2022/08/26 09:47:46;;;;;;;;;;;;;;;33.50;33.63;98617.63;5094921;28;20402;-49
2022/08/26 09:50:13;;;;;;;;;;;;;;;33.38;33.41;98620.44;5094874;28;20416;-48
2022/08/26 09:52:38;;;;;;;;;;;;;;;33.16;33.66;98617.25;5094754;28;20014;-50
2022/08/26 09:55:13;;;;;;;;;;;;;;;33.28;33.73;98610.13;5094723;28;20004;-49
2022/08/26 09:57:57;;;;;;;;;;;;;;;33.23;33.77;98608.47;5094690;28;19922;-49
2022/08/26 10:00:42;;;;;;;;;;;;;;;33.08;33.74;98606.53;5093429;28;19912;-50
2022/08/26 10:03:21;;;;;;;;;;;;;;;32.88;33.82;98602.94;5094689;28;19919;-50
2022/08/26 10:05:59;;;;;;;;;;;;;;;32.79;33.47;98609.34;5093302;28;19919;-49
2022/08/26 10:08:35;;;;;;;;;;;;;;;32.69;33.90;98615.28;5094694;28;19939;-49
2022/08/26 10:11:04;;;;;;;;;;;;;;;32.87;34.39;98612.25;5094469;28;19912;-49
2022/08/26 10:13:30;;;;;;;;;;;;;;;33.03;33.91;98619.25;5094467;28;20194;-48
2022/08/26 10:16:02;;;;;;;;;;;;;;;33.09;33.21;98619.81;5094354;28;19911;-47
2022/08/26 10:18:29;;;;;;;;;;;;;;;33.24;32.79;98615.47;5094552;28;20274;-49
2022/08/26 10:21:05;;;;;;;;;;;;;;;33.47;33.17;98615.63;5092965;28;19916;-49
2022/08/26 10:23:35;;;;;;;;;;;;;;;33.76;32.61;98610.81;5094221;28;19919;-49
2022/08/26 10:26:21;;;;;;;;;;;;;;;34.01;31.99;98603.16;5094253;28;20402;-49
2022/08/26 10:28:49;;;;;;;;;;;;;;;34.32;31.79;98604.94;5084959;28;20333;-48
2022/08/26 10:31:27;;;;;;;;;;;;;;;34.32;31.49;98604.16;5094079;28;19965;-49
2022/08/26 10:33:53;;;;;;;;;;;;;;;34.09;31.35;98595.91;5093964;28;19908;-48
2022/08/26 10:39:08;;;;;;;;;;;;;;;34.60;31.44;98582.88;5094289;28;20069;-50
2022/08/26 10:41:39;;;;;;;;;;;;;;;34.46;31.04;98584.56;5093800;28;19912;-48
2022/08/26 10:44:07;;;;;;;;;;;;;;;34.50;31.50;98579.97;5093147;28;19947;-48
2022/08/26 10:46:44;;;;;;;;;;;;;;;34.40;31.05;98579.41;5092288;28;19912;-48
2022/08/26 10:49:14;;;;;;;;;;;;;;;34.12;31.19;98567.97;5093634;28;20015;-49
2022/08/26 10:51:59;;;;;;;;;;;;;;;33.88;31.71;98577.22;5093576;28;19969;-50
2022/08/26 10:54:41;;;;;;;;;;;;;;;33.95;31.78;98570.00;5093275;28;19916;-48
2022/08/26 10:57:09;;;;;;;;;;;;;;;34.48;31.20;98571.38;5093578;28;19912;-51
2022/08/26 10:59:47;;;;;;;;;;;;;;;35.05;30.88;98566.84;5092230;28;19920;-49
2022/08/26 11:02:21;;;;;;;;;;;;;;;35.70;30.12;98570.50;5093498;28;19912;-48
2022/08/26 11:04:53;;;;;;;;;;;;;;;36.02;29.04;98570.09;5092059;28;20057;-49
2022/08/26 11:07:39;;;;;;;;;;;;;;;35.67;29.38;98560.34;5091949;28;19916;-48
2022/08/26 11:10:19;;;;;;;;;;;;;;;34.80;29.82;98572.72;5092736;28;19912;-49
2022/08/26 11:12:52;;;;;;;;;;;;;;;34.22;30.65;98575.56;5093211;28;19923;-49
2022/08/26 11:15:18;;;;;;;;;;;;;;;33.92;31.18;98573.41;5093139;28;19912;-49
2022/08/26 11:17:43;;;;;;;;;;;;;;;33.76;31.65;98568.03;5093175;28;19974;-49
2022/08/26 11:20:15;;;;;;;;;;;;;;;33.66;32.04;98570.56;5093111;28;19916;-49
2022/08/26 11:22:40;;;;;;;;;;;;;;;33.66;32.43;98570.56;5093082;28;20455;-50
2022/08/26 11:25:10;;;;;;;;;;;;;;;33.52;32.23;98565.56;5092993;28;19912;-48
2022/08/26 11:27:36;;;;;;;;;;;;;;;33.51;32.54;98564.00;5092970;28;19922;-50
2022/08/26 11:30:06;;;;;;;;;;;;;;;33.56;32.24;98566.44;5092471;28;20376;-49
2022/08/26 11:32:40;;;;;;;;;;;;;;;33.65;32.15;98563.56;5092929;28;19919;-49
2022/08/26 11:35:10;;;;;;;;;;;;;;;33.58;32.56;98570.38;5092804;28;19919;-48
2022/08/26 11:37:38;;;;;;;;;;;;;;;33.62;32.23;98575.91;5092806;28;20439;-48
2022/08/26 11:40:15;;;;;;;;;;;;;;;33.81;31.56;98565.03;5093036;28;20301;-48
2022/08/26 11:42:54;;;;;;;;;;;;;;;33.76;31.73;98561.81;5092840;28;20441;-49
2022/08/26 11:45:37;;;;;;;;;;;;;;;33.72;31.97;98574.56;5092687;28;19912;-50
2022/08/26 11:48:20;;;;;;;;;;;;;;;33.72;32.30;98567.19;5091273;28;19919;-50
2022/08/26 11:50:53;;;;;;;;;;;;;;;33.70;31.84;98565.97;5092647;28;19912;-50
2022/08/26 11:53:18;;;;;;;;;;;;;;;34.00;31.50;98561.50;5092614;28;19916;-50
2022/08/26 11:55:44;;;;;;;;;;;;;;;34.19;31.37;98560.75;5092633;28;19918;-49
2022/08/26 11:58:11;;;;;;;;;;;;;;;34.22;30.88;98560.00;5092451;28;19912;-50
2022/08/26 12:00:42;;;;;;;;;;;;;;;34.11;30.85;98564.47;5092682;28;19922;-49
2022/08/26 12:03:30;;;;;;;;;;;;;;;34.40;30.89;98560.34;5092516;28;19912;-49
2022/08/26 12:05:56;;;;;;;;;;;;;;;34.93;30.29;98561.59;5092287;28;19912;-48
2022/08/26 12:08:26;;;;;;;;;;;;;;;35.42;29.90;98560.78;5092334;28;19965;-50
2022/08/26 12:11:21;;;;;;;;;;;;;;;35.96;29.75;98558.72;5092396;28;20306;-50
2022/08/26 12:14:14;;;;;;;;;;;;;;;35.84;29.17;98557.06;5049688;28;19912;-49
2022/08/26 12:16:39;;;;;;;;;;;;;;;36.20;28.98;98546.50;5034654;28;19956;-51
2022/08/26 12:19:21;;;;;;;;;;;;;;;36.32;28.38;98567.31;5049829;28;19960;-49
2022/08/26 12:21:47;;;;;;;;;;;;;;;36.66;27.89;98548.91;5033108;28;19913;-50
2022/08/26 12:24:17;;;;;;;;;;;;;;;36.55;27.70;98554.25;5049826;28;19962;-49
2022/08/26 12:26:43;;;;;;;;;;;;;;;36.72;27.39;98549.34;5049737;28;19956;-50
2022/08/26 12:29:12;;;;;;;;;;;;;;;36.93;27.69;98557.72;5049443;28;20369;-50
2022/08/26 12:31:42;;;;;;;;;;;;;;;36.92;27.07;98553.41;5033115;28;20356;-50
2022/08/26 12:34:09;;;;;;;;;;;;;;;36.90;27.02;98544.00;5049829;28;20009;-50
2022/08/26 12:36:36;;;;;;;;;;;;;;;36.96;27.19;98543.25;5033000;28;19970;-50
2022/08/26 12:39:13;;;;;;;;;;;;;;;37.05;27.27;98534.75;5049764;28;19955;-50
2022/08/26 12:41:38;;;;;;;;;;;;;;;37.43;27.00;98534.56;5049793;28;20418;-49
2022/08/26 12:44:04;;;;;;;;;;;;;;;37.70;26.05;98532.38;5049695;28;20011;-49
2022/08/26 12:46:29;;;;;;;;;;;;;;;37.51;26.18;98534.22;5049721;28;19913;-49
2022/08/26 12:48:59;;;;;;;;;;;;;;;37.25;27.01;98526.25;5049656;28;20019;-49
2022/08/26 12:51:27;;;;;;;;;;;;;;;36.90;27.09;98525.63;5051906;28;19935;-49
2022/08/26 12:53:52;;;;;;;;;;;;;;;36.69;27.23;98529.03;5051837;28;19912;-49
2022/08/26 12:56:20;;;;;;;;;;;;;;;36.12;27.90;98523.78;5051777;28;19920;-50
2022/08/26 12:58:59;;;;;;;;;;;;;;;35.47;28.10;98522.25;5050440;28;19962;-49
2022/08/26 13:01:24;;;;;;;;;;;;;;;35.45;27.42;98494.53;5050466;28;19913;-49
2022/08/26 13:03:50;;;;;;;;;;;;;;;35.39;27.73;98507.72;5050401;28;20004;-49